sensor_id;sensor_type;location;lat;lon;timestamp;pressure;altitude;pressure_sealevel;temperature;humidity
78210;BME280;67485;48.816;9.930;2023-02-28T00:01:20;97440.03;;;-3.27;70.75
78210;BME280;67485;48.816;9.930;2023-02-28T00:03:46;97440.78;;;-3.29;70.62
78210;BME280;67485;48.816;9.930;2023-02-28T00:06:12;97439.84;;;-3.31;71.56
78210;BME280;67485;48.816;9.930;2023-02-28T00:08:38;97441.59;;;-3.30;71.14
78210;BME280;67485;48.816;9.930;2023-02-28T00:11:06;97440.91;;;-3.26;71.70
78210;BME280;67485;48.816;9.930;2023-02-28T00:13:35;97439.44;;;-3.19;71.83
78210;BME280;67485;48.816;9.930;2023-02-28T00:16:04;97430.25;;;-3.14;71.59
78210;BME280;67485;48.816;9.930;2023-02-28T00:18:30;97433.66;;;-3.14;71.50
78210;BME280;67485;48.816;9.930;2023-02-28T00:20:57;97438.63;;;-3.18;71.88
78210;BME280;67485;48.816;9.930;2023-02-28T00:23:23;97436.88;;;-3.19;71.86
78210;BME280;67485;48.816;9.930;2023-02-28T00:25:50;97432.56;;;-3.20;72.58
78210;BME280;67485;48.816;9.930;2023-02-28T00:28:15;97430.88;;;-3.20;72.42
78210;BME280;67485;48.816;9.930;2023-02-28T00:30:41;97432.63;;;-3.19;72.69
78210;BME280;67485;48.816;9.930;2023-02-28T00:33:07;97436.88;;;-3.19;72.93
78210;BME280;67485;48.816;9.930;2023-02-28T00:35:33;97430.94;;;-3.18;72.66
78210;BME280;67485;48.816;9.930;2023-02-28T00:37:58;97434.28;;;-3.19;73.40
78210;BME280;67485;48.816;9.930;2023-02-28T00:40:26;97438.66;;;-3.17;73.25
78210;BME280;67485;48.816;9.930;2023-02-28T00:42:52;97440.94;;;-3.24;73.10
78210;BME280;67485;48.816;9.930;2023-02-28T00:45:18;97432.13;;;-3.33;73.69
78210;BME280;67485;48.816;9.930;2023-02-28T00:47:44;97434.72;;;-3.31;74.13
78210;BME280;67485;48.816;9.930;2023-02-28T00:50:12;97431.34;;;-3.30;74.02
78210;BME280;67485;48.816;9.930;2023-02-28T00:52:37;97433.09;;;-3.29;74.45
78210;BME280;67485;48.816;9.930;2023-02-28T00:55:04;97427.13;;;-3.28;74.73
78210;BME280;67485;48.816;9.930;2023-02-28T00:57:30;97428.09;;;-3.26;74.90
78210;BME280;67485;48.816;9.930;2023-02-28T00:59:56;97429.84;;;-3.25;74.69
78210;BME280;67485;48.816;9.930;2023-02-28T01:02:22;97436.72;;;-3.24;74.90
78210;BME280;67485;48.816;9.930;2023-02-28T01:04:48;97430.16;;;-3.16;74.88
78210;BME280;67485;48.816;9.930;2023-02-28T01:07:13;97430.06;;;-3.19;74.90
78210;BME280;67485;48.816;9.930;2023-02-28T01:09:40;97419.63;;;-3.23;74.68
78210;BME280;67485;48.816;9.930;2023-02-28T01:12:08;97428.09;;;-3.26;75.32
78210;BME280;67485;48.816;9.930;2023-02-28T01:14:34;97425.53;;;-3.26;74.95
78210;BME280;67485;48.816;9.930;2023-02-28T01:17:00;97416.78;;;-3.31;75.23
78210;BME280;67485;48.816;9.930;2023-02-28T01:19:26;97423.47;;;-3.35;76.03
78210;BME280;67485;48.816;9.930;2023-02-28T01:21:52;97413.19;;;-3.36;76.10
78210;BME280;67485;48.816;9.930;2023-02-28T01:24:18;97419.13;;;-3.37;76.17
78210;BME280;67485;48.816;9.930;2023-02-28T01:26:44;97418.13;;;-3.41;75.98
78210;BME280;67485;48.816;9.930;2023-02-28T01:29:10;97424.16;;;-3.40;76.16
78210;BME280;67485;48.816;9.930;2023-02-28T01:31:36;97423.97;;;-3.45;76.43
78210;BME280;67485;48.816;9.930;2023-02-28T01:34:02;97427.38;;;-3.45;76.91
78210;BME280;67485;48.816;9.930;2023-02-28T01:36:28;97424.00;;;-3.44;76.79
78210;BME280;67485;48.816;9.930;2023-02-28T01:38:55;97417.03;;;-3.48;76.59
78210;BME280;67485;48.816;9.930;2023-02-28T01:41:24;97418.84;;;-3.45;77.21
78210;BME280;67485;48.816;9.930;2023-02-28T01:46:15;97419.66;;;-3.46;77.19
78210;BME280;67485;48.816;9.930;2023-02-28T01:48:48;97416.22;;;-3.47;76.77
78210;BME280;67485;48.816;9.930;2023-02-28T01:51:37;97416.28;;;-3.45;77.46
78210;BME280;67485;48.816;9.930;2023-02-28T01:54:09;97417.03;;;-3.48;76.79
78210;BME280;67485;48.816;9.930;2023-02-28T01:57:28;97418.59;;;-3.51;77.40
78210;BME280;67485;48.816;9.930;2023-02-28T01:59:43;97418.56;;;-3.53;77.51
78210;BME280;67485;48.816;9.930;2023-02-28T02:02:19;97417.59;;;-3.55;77.74
78210;BME280;67485;48.816;9.930;2023-02-28T02:04:59;97410.69;;;-3.58;77.83
78210;BME280;67485;48.816;9.930;2023-02-28T02:07:29;97408.06;;;-3.59;78.47
78210;BME280;67485;48.816;9.930;2023-02-28T02:10:06;97410.53;;;-3.61;78.15
78210;BME280;67485;48.816;9.930;2023-02-28T02:17:39;97404.56;;;-3.61;78.25
78210;BME280;67485;48.816;9.930;2023-02-28T02:25:38;97407.81;;;-3.65;78.66
78210;BME280;67485;48.816;9.930;2023-02-28T02:36:42;97395.69;;;-3.69;78.88
78210;BME280;67485;48.816;9.930;2023-02-28T02:41:54;97396.44;;;-3.72;79.62
78210;BME280;67485;48.816;9.930;2023-02-28T02:44:32;97398.16;;;-3.72;79.34
78210;BME280;67485;48.816;9.930;2023-02-28T02:47:13;97395.69;;;-3.69;79.71
78210;BME280;67485;48.816;9.930;2023-02-28T02:49:45;97397.44;;;-3.68;78.96
78210;BME280;67485;48.816;9.930;2023-02-28T02:52:14;97398.38;;;-3.66;79.36
78210;BME280;67485;48.816;9.930;2023-02-28T02:54:45;97397.44;;;-3.68;79.30
78210;BME280;67485;48.816;9.930;2023-02-28T02:57:19;97400.06;;;-3.67;79.27
78210;BME280;67485;48.816;9.930;2023-02-28T02:59:47;97400.06;;;-3.67;79.34
78210;BME280;67485;48.816;9.930;2023-02-28T03:02:16;97400.25;;;-3.62;79.42
78210;BME280;67485;48.816;9.930;2023-02-28T03:04:52;97397.69;;;-3.62;78.93
78210;BME280;67485;48.816;9.930;2023-02-28T03:07:20;97401.94;;;-3.63;79.40
78210;BME280;67485;48.816;9.930;2023-02-28T03:09:51;97394.53;;;-3.55;79.40
78210;BME280;67485;48.816;9.930;2023-02-28T03:12:18;97392.78;;;-3.56;79.45
78210;BME280;67485;48.816;9.930;2023-02-28T03:17:38;97404.66;;;-3.58;79.48
78210;BME280;67485;48.816;9.930;2023-02-28T03:20:32;97391.16;;;-3.54;79.88
78210;BME280;67485;48.816;9.930;2023-02-28T03:23:22;97387.91;;;-3.50;79.67
78210;BME280;67485;48.816;9.930;2023-02-28T03:30:52;97394.78;;;-3.49;79.12
78210;BME280;67485;48.816;9.930;2023-02-28T03:33:30;97395.72;;;-3.47;79.07
78210;BME280;67485;48.816;9.930;2023-02-28T03:36:05;97398.50;;;-3.40;79.38
78210;BME280;67485;48.816;9.930;2023-02-28T03:41:24;97395.09;;;-3.39;78.78
78210;BME280;67485;48.816;9.930;2023-02-28T03:43:58;97394.88;;;-3.46;79.41
78210;BME280;67485;48.816;9.930;2023-02-28T03:46:27;97395.78;;;-3.45;79.10
78210;BME280;67485;48.816;9.930;2023-02-28T03:49:22;97400.94;;;-3.44;79.46
78210;BME280;67485;48.816;9.930;2023-02-28T03:51:50;97396.75;;;-3.42;78.93
78210;BME280;67485;48.816;9.930;2023-02-28T03:54:27;97395.00;;;-3.43;79.38
78210;BME280;67485;48.816;9.930;2023-02-28T03:57:13;97401.88;;;-3.42;79.29
78210;BME280;67485;48.816;9.930;2023-02-28T03:59:48;97408.00;;;-3.38;79.61
78210;BME280;67485;48.816;9.930;2023-02-28T04:02:16;97403.91;;;-3.33;78.80
78210;BME280;67485;48.816;9.930;2023-02-28T04:04:43;97408.28;;;-3.30;78.77
78210;BME280;67485;48.816;9.930;2023-02-28T04:07:11;97409.44;;;-3.22;78.08
78210;BME280;67485;48.816;9.930;2023-02-28T04:09:37;97408.59;;;-3.21;78.41
78210;BME280;67485;48.816;9.930;2023-02-28T04:12:03;97409.44;;;-3.22;78.85
78210;BME280;67485;48.816;9.930;2023-02-28T04:14:29;97403.25;;;-3.27;78.51
78210;BME280;67485;48.816;9.930;2023-02-28T04:16:55;97409.31;;;-3.25;78.57
78210;BME280;67485;48.816;9.930;2023-02-28T04:19:20;97408.56;;;-3.22;78.34
78210;BME280;67485;48.816;9.930;2023-02-28T04:21:49;97413.78;;;-3.19;78.49
78210;BME280;67485;48.816;9.930;2023-02-28T04:24:20;97415.31;;;-3.24;77.76
78210;BME280;67485;48.816;9.930;2023-02-28T04:26:48;97414.53;;;-3.22;78.27
78210;BME280;67485;48.816;9.930;2023-02-28T04:29:36;97403.44;;;-3.22;77.97
78210;BME280;67485;48.816;9.930;2023-02-28T04:32:03;97413.69;;;-3.22;77.91
78210;BME280;67485;48.816;9.930;2023-02-28T04:34:30;97412.13;;;-3.19;78.12
78210;BME280;67485;48.816;9.930;2023-02-28T04:36:57;97403.47;;;-3.21;78.24
78210;BME280;67485;48.816;9.930;2023-02-28T04:39:24;97412.94;;;-3.20;77.79
78210;BME280;67485;48.816;9.930;2023-02-28T04:41:50;97409.44;;;-3.22;78.56
78210;BME280;67485;48.816;9.930;2023-02-28T04:44:16;97409.56;;;-3.19;78.15
78210;BME280;67485;48.816;9.930;2023-02-28T04:46:43;97402.13;;;-3.11;78.25
78210;BME280;67485;48.816;9.930;2023-02-28T04:49:11;97405.63;;;-3.09;77.10
78210;BME280;67485;48.816;9.930;2023-02-28T04:51:36;97407.44;;;-3.06;76.82
78210;BME280;67485;48.816;9.930;2023-02-28T04:54:02;97414.41;;;-3.02;76.72
78210;BME280;67485;48.816;9.930;2023-02-28T04:56:28;97416.66;;;-3.12;77.30
78210;BME280;67485;48.816;9.930;2023-02-28T04:58:53;97414.25;;;-3.07;76.63
78210;BME280;67485;48.816;9.930;2023-02-28T05:01:31;97413.59;;;-3.01;77.39
78210;BME280;67485;48.816;9.930;2023-02-28T05:03:59;97415.41;;;-2.99;77.31
78210;BME280;67485;48.816;9.930;2023-02-28T05:06:27;97413.59;;;-3.01;76.55
78210;BME280;67485;48.816;9.930;2023-02-28T05:08:53;97422.09;;;-3.02;76.62
78210;BME280;67485;48.816;9.930;2023-02-28T05:11:26;97419.63;;;-2.99;76.60
78210;BME280;67485;48.816;9.930;2023-02-28T05:13:52;97408.47;;;-3.01;76.62
78210;BME280;67485;48.816;9.930;2023-02-28T05:16:19;97413.59;;;-3.01;76.87
78210;BME280;67485;48.816;9.930;2023-02-28T05:18:45;97409.47;;;-2.98;76.49
78210;BME280;67485;48.816;9.930;2023-02-28T05:21:57;97408.47;;;-3.01;76.49
78210;BME280;67485;48.816;9.930;2023-02-28T05:24:15;97410.09;;;-3.03;76.66
78210;BME280;67485;48.816;9.930;2023-02-28T05:26:49;97413.69;;;-2.98;76.43
78210;BME280;67485;48.816;9.930;2023-02-28T05:29:16;97411.75;;;-3.05;77.01
78210;BME280;67485;48.816;9.930;2023-02-28T05:31:42;97416.75;;;-3.08;76.92
78210;BME280;67485;48.816;9.930;2023-02-28T05:34:08;97408.25;;;-3.07;77.02
78210;BME280;67485;48.816;9.930;2023-02-28T05:36:37;97404.97;;;-3.03;76.91
78210;BME280;67485;48.816;9.930;2023-02-28T05:39:02;97408.34;;;-3.04;77.20
78210;BME280;67485;48.816;9.930;2023-02-28T05:41:29;97415.13;;;-3.06;76.89
78210;BME280;67485;48.816;9.930;2023-02-28T05:43:55;97414.19;;;-3.08;77.31
78210;BME280;67485;48.816;9.930;2023-02-28T05:46:20;97418.50;;;-3.07;76.99
78210;BME280;67485;48.816;9.930;2023-02-28T05:48:47;97418.38;;;-3.11;77.24
78210;BME280;67485;48.816;9.930;2023-02-28T05:51:13;97413.25;;;-3.11;77.01
78210;BME280;67485;48.816;9.930;2023-02-28T05:53:39;97423.50;;;-3.11;77.42
78210;BME280;67485;48.816;9.930;2023-02-28T05:56:04;97425.44;;;-3.05;76.95
78210;BME280;67485;48.816;9.930;2023-02-28T05:58:30;97421.88;;;-3.08;76.45
78210;BME280;67485;48.816;9.930;2023-02-28T06:01:00;97421.88;;;-3.08;76.52
78210;BME280;67485;48.816;9.930;2023-02-28T06:03:43;97422.66;;;-3.11;77.40
78210;BME280;67485;48.816;9.930;2023-02-28T06:06:09;97433.09;;;-3.06;77.32
78210;BME280;67485;48.816;9.930;2023-02-28T06:08:35;97427.16;;;-3.05;76.90
78210;BME280;67485;48.816;9.930;2023-02-28T06:11:03;97434.84;;;-3.05;76.78
78210;BME280;67485;48.816;9.930;2023-02-28T06:13:29;97438.25;;;-3.05;76.99
78210;BME280;67485;48.816;9.930;2023-02-28T06:15:55;97434.84;;;-3.05;77.18
78210;BME280;67485;48.816;9.930;2023-02-28T06:18:20;97429.53;;;-3.10;76.57
78210;BME280;67485;48.816;9.930;2023-02-28T06:20:55;97432.38;;;-3.02;76.91
78210;BME280;67485;48.816;9.930;2023-02-28T06:23:21;97440.28;;;-2.96;76.80
78210;BME280;67485;48.816;9.930;2023-02-28T06:25:47;97436.84;;;-2.97;76.73
78210;BME280;67485;48.816;9.930;2023-02-28T06:28:13;97442.63;;;-3.02;76.55
78210;BME280;67485;48.816;9.930;2023-02-28T06:30:39;97441.09;;;-2.97;77.25
78210;BME280;67485;48.816;9.930;2023-02-28T06:33:05;97443.56;;;-3.00;76.62
78210;BME280;67485;48.816;9.930;2023-02-28T06:35:31;97442.94;;;-2.93;77.05
78210;BME280;67485;48.816;9.930;2023-02-28T06:37:57;97453.34;;;-2.90;77.15
78210;BME280;67485;48.816;9.930;2023-02-28T06:40:23;97448.19;;;-2.90;77.04
78210;BME280;67485;48.816;9.930;2023-02-28T06:42:48;97448.31;;;-2.87;76.82
78210;BME280;67485;48.816;9.930;2023-02-28T06:45:14;97453.66;;;-2.81;76.32
78210;BME280;67485;48.816;9.930;2023-02-28T06:47:41;97450.28;;;-2.80;76.11
78210;BME280;67485;48.816;9.930;2023-02-28T06:50:09;97453.66;;;-2.81;76.10
78210;BME280;67485;48.816;9.930;2023-02-28T06:52:35;97456.34;;;-2.78;75.94
78210;BME280;67485;48.816;9.930;2023-02-28T06:55:04;97459.22;;;-2.68;75.84
78210;BME280;67485;48.816;9.930;2023-02-28T06:57:31;97457.25;;;-2.75;76.38
78210;BME280;67485;48.816;9.930;2023-02-28T06:59:59;97461.69;;;-2.71;75.97
78210;BME280;67485;48.816;9.930;2023-02-28T07:02:25;97460.03;;;-2.69;76.05
78210;BME280;67485;48.816;9.930;2023-02-28T07:04:51;97467.97;;;-2.63;75.88
78210;BME280;67485;48.816;9.930;2023-02-28T07:07:17;97476.69;;;-2.58;75.35
78210;BME280;67485;48.816;9.930;2023-02-28T07:09:42;97477.63;;;-2.56;75.62
78210;BME280;67485;48.816;9.930;2023-02-28T07:12:08;97476.69;;;-2.58;74.79
78210;BME280;67485;48.816;9.930;2023-02-28T07:14:36;97482.16;;;-2.49;74.55
78210;BME280;67485;48.816;9.930;2023-02-28T07:17:02;97482.13;;;-2.50;74.85
78210;BME280;67485;48.816;9.930;2023-02-28T07:19:28;97485.84;;;-2.40;74.60
78210;BME280;67485;48.816;9.930;2023-02-28T07:21:53;97491.00;;;-2.40;74.14
78210;BME280;67485;48.816;9.930;2023-02-28T07:24:20;97496.25;;;-2.37;74.11
78210;BME280;67485;48.816;9.930;2023-02-28T07:26:45;97495.31;;;-2.39;74.13
78210;BME280;67485;48.816;9.930;2023-02-28T07:29:11;97492.34;;;-2.26;73.53
78210;BME280;67485;48.816;9.930;2023-02-28T07:31:37;97493.38;;;-2.21;73.88
78210;BME280;67485;48.816;9.930;2023-02-28T07:34:02;97485.63;;;-2.22;72.91
78210;BME280;67485;48.816;9.930;2023-02-28T07:36:28;97484.66;;;-2.26;73.18
78210;BME280;67485;48.816;9.930;2023-02-28T07:38:54;97498.44;;;-2.24;73.22
78210;BME280;67485;48.816;9.930;2023-02-28T07:41:21;97489.13;;;-2.20;73.69
78210;BME280;67485;48.816;9.930;2023-02-28T07:43:47;97492.28;;;-2.29;73.39
78210;BME280;67485;48.816;9.930;2023-02-28T07:46:14;97490.09;;;-2.17;73.85
78210;BME280;67485;48.816;9.930;2023-02-28T07:48:40;97494.94;;;-2.00;73.22
78210;BME280;67485;48.816;9.930;2023-02-28T07:51:06;97499.34;;;-1.96;72.39
78210;BME280;67485;48.816;9.930;2023-02-28T07:53:32;97498.63;;;-1.92;72.37
78210;BME280;67485;48.816;9.930;2023-02-28T07:56:00;97492.47;;;-1.97;72.73
78210;BME280;67485;48.816;9.930;2023-02-28T07:58:27;97499.56;;;-1.90;72.39
78210;BME280;67485;48.816;9.930;2023-02-28T08:00:53;97500.09;;;-2.00;71.59
78210;BME280;67485;48.816;9.930;2023-02-28T08:03:20;97502.53;;;-2.03;72.34
78210;BME280;67485;48.816;9.930;2023-02-28T08:05:46;97502.94;;;-1.91;72.36
78210;BME280;67485;48.816;9.930;2023-02-28T08:08:13;97501.53;;;-1.83;72.09
78210;BME280;67485;48.816;9.930;2023-02-28T08:10:39;97504.66;;;-1.64;71.60
78210;BME280;67485;48.816;9.930;2023-02-28T08:13:04;97502.59;;;-1.49;71.52
78210;BME280;67485;48.816;9.930;2023-02-28T08:15:30;97509.56;;;-1.44;70.96
78210;BME280;67485;48.816;9.930;2023-02-28T08:17:56;97507.31;;;-1.35;70.70
78210;BME280;67485;48.816;9.930;2023-02-28T08:20:23;97502.22;;;-1.34;70.33
78210;BME280;67485;48.816;9.930;2023-02-28T08:22:49;97495.28;;;-1.07;70.09
78210;BME280;67485;48.816;9.930;2023-02-28T08:25:15;97498.28;;;-0.93;70.05
78210;BME280;67485;48.816;9.930;2023-02-28T08:27:41;97497.22;;;-1.00;69.55
78210;BME280;67485;48.816;9.930;2023-02-28T08:30:09;97502.09;;;-1.09;69.51
78210;BME280;67485;48.816;9.930;2023-02-28T08:32:35;97500.69;;;-1.27;69.34
78210;BME280;67485;48.816;9.930;2023-02-28T08:35:01;97507.81;;;-1.18;69.63
78210;BME280;67485;48.816;9.930;2023-02-28T08:37:28;97503.91;;;-1.05;69.80
78210;BME280;67485;48.816;9.930;2023-02-28T08:39:54;97494.91;;;-0.91;68.81
78210;BME280;67485;48.816;9.930;2023-02-28T08:42:19;97497.50;;;-0.91;68.75
78210;BME280;67485;48.816;9.930;2023-02-28T08:44:45;97503.03;;;-0.77;67.95
78210;BME280;67485;48.816;9.930;2023-02-28T08:47:11;97501.16;;;-0.83;68.19
78210;BME280;67485;48.816;9.930;2023-02-28T08:49:37;97505.28;;;-0.88;67.65
78210;BME280;67485;48.816;9.930;2023-02-28T08:52:03;97503.16;;;-0.72;68.01
78210;BME280;67485;48.816;9.930;2023-02-28T08:54:29;97502.53;;;-0.65;68.00
78210;BME280;67485;48.816;9.930;2023-02-28T08:56:56;97501.34;;;-0.46;66.58
78210;BME280;67485;48.816;9.930;2023-02-28T08:59:22;97498.38;;;-0.60;67.42
78210;BME280;67485;48.816;9.930;2023-02-28T09:01:48;97509.88;;;-0.47;66.73
78210;BME280;67485;48.816;9.930;2023-02-28T09:04:14;97503.41;;;-0.32;66.69
78210;BME280;67485;48.816;9.930;2023-02-28T09:06:39;97506.22;;;-0.23;66.38
78210;BME280;67485;48.816;9.930;2023-02-28T09:09:06;97503.19;;;-0.08;66.09
78210;BME280;67485;48.816;9.930;2023-02-28T09:11:34;97504.03;;;-0.09;66.19
78210;BME280;67485;48.816;9.930;2023-02-28T09:14:00;97502.59;;;0.02;65.50
78210;BME280;67485;48.816;9.930;2023-02-28T09:16:29;97499.34;;;0.09;64.83
78210;BME280;67485;48.816;9.930;2023-02-28T09:18:56;97504.31;;;0.02;64.21
78210;BME280;67485;48.816;9.930;2023-02-28T09:21:22;97503.03;;;0.54;62.64
78210;BME280;67485;48.816;9.930;2023-02-28T09:23:49;97499.13;;;0.72;61.36
78210;BME280;67485;48.816;9.930;2023-02-28T09:26:19;97509.13;;;0.96;61.39
78210;BME280;67485;48.816;9.930;2023-02-28T09:28:46;97503.22;;;0.63;60.86
78210;BME280;67485;48.816;9.930;2023-02-28T09:31:23;97503.78;;;0.87;60.48
78210;BME280;67485;48.816;9.930;2023-02-28T09:33:52;97508.13;;;1.29;60.23
78210;BME280;67485;48.816;9.930;2023-02-28T09:36:18;97505.41;;;1.64;58.46
78210;BME280;67485;48.816;9.930;2023-02-28T09:38:44;97510.88;;;0.97;60.35
78210;BME280;67485;48.816;9.930;2023-02-28T09:41:15;97507.88;;;1.58;58.72
78210;BME280;67485;48.816;9.930;2023-02-28T09:43:46;97511.72;;;2.27;56.86
78210;BME280;67485;48.816;9.930;2023-02-28T09:46:44;97514.50;;;2.95;55.01
78210;BME280;67485;48.816;9.930;2023-02-28T09:49:23;97518.38;;;1.69;56.98
78210;BME280;67485;48.816;9.930;2023-02-28T09:52:03;97509.84;;;1.30;57.83
78210;BME280;67485;48.816;9.930;2023-02-28T09:54:31;97510.81;;;1.35;58.29
78210;BME280;67485;48.816;9.930;2023-02-28T09:57:32;97509.47;;;1.99;56.37
78210;BME280;67485;48.816;9.930;2023-02-28T10:00:13;97508.72;;;2.55;55.36
78210;BME280;67485;48.816;9.930;2023-02-28T10:06:09;97520.75;;;2.53;55.17
78210;BME280;67485;48.816;9.930;2023-02-28T10:08:45;97510.31;;;3.03;54.23
78210;BME280;67485;48.816;9.930;2023-02-28T10:11:17;97515.03;;;4.08;51.90
78210;BME280;67485;48.816;9.930;2023-02-28T10:14:15;97522.94;;;4.20;50.69
78210;BME280;67485;48.816;9.930;2023-02-28T10:17:04;97511.47;;;3.98;51.99
78210;BME280;67485;48.816;9.930;2023-02-28T10:22:27;97536.00;;;2.89;52.09
78210;BME280;67485;48.816;9.930;2023-02-28T10:24:56;97536.00;;;2.36;54.50
78210;BME280;67485;48.816;9.930;2023-02-28T10:27:32;97537.56;;;2.26;55.19
78210;BME280;67485;48.816;9.930;2023-02-28T10:30:00;97534.22;;;1.86;56.08
78210;BME280;67485;48.816;9.930;2023-02-28T10:32:31;97532.16;;;2.14;56.01
78210;BME280;67485;48.816;9.930;2023-02-28T10:35:14;97523.59;;;2.67;54.54
78210;BME280;67485;48.816;9.930;2023-02-28T10:37:42;97527.56;;;2.48;55.31
78210;BME280;67485;48.816;9.930;2023-02-28T10:42:55;97521.94;;;2.20;56.70
78210;BME280;67485;48.816;9.930;2023-02-28T10:45:22;97531.09;;;2.02;56.57
78210;BME280;67485;48.816;9.930;2023-02-28T10:53:30;97524.56;;;4.12;51.34
78210;BME280;67485;48.816;9.930;2023-02-28T10:58:50;97512.31;;;3.95;51.62
78210;BME280;67485;48.816;9.930;2023-02-28T11:01:41;97513.41;;;4.20;50.39
78210;BME280;67485;48.816;9.930;2023-02-28T11:06:56;97524.69;;;4.22;49.89
78210;BME280;67485;48.816;9.930;2023-02-28T11:09:38;97511.06;;;3.61;51.59
78210;BME280;67485;48.816;9.930;2023-02-28T11:12:06;97508.78;;;3.87;52.13
78210;BME280;67485;48.816;9.930;2023-02-28T11:14:40;97516.81;;;4.13;51.21
78210;BME280;67485;48.816;9.930;2023-02-28T11:17:21;97505.53;;;5.19;48.94
78210;BME280;67485;48.816;9.930;2023-02-28T11:19:51;97501.41;;;5.71;47.71
78210;BME280;67485;48.816;9.930;2023-02-28T11:22:20;97499.88;;;6.39;45.42
78210;BME280;67485;48.816;9.930;2023-02-28T11:24:50;97487.38;;;7.98;42.05
78210;BME280;67485;48.816;9.930;2023-02-28T11:30:03;97480.44;;;7.87;40.31
78210;BME280;67485;48.816;9.930;2023-02-28T11:32:30;97483.25;;;7.44;41.85
78210;BME280;67485;48.816;9.930;2023-02-28T11:37:35;97478.81;;;7.68;40.57
78210;BME280;67485;48.816;9.930;2023-02-28T11:40:01;97484.13;;;7.40;40.72
78210;BME280;67485;48.816;9.930;2023-02-28T11:48:21;97478.97;;;7.12;41.82
78210;BME280;67485;48.816;9.930;2023-02-28T11:53:50;97474.78;;;8.58;40.40
78210;BME280;67485;48.816;9.930;2023-02-28T11:59:31;97483.22;;;7.49;41.86
78210;BME280;67485;48.816;9.930;2023-02-28T12:02:16;97477.00;;;7.79;40.03
78210;BME280;67485;48.816;9.930;2023-02-28T12:10:16;97472.44;;;8.14;39.81
78210;BME280;67485;48.816;9.930;2023-02-28T12:21:40;97480.59;;;9.71;36.06
78210;BME280;67485;48.816;9.930;2023-02-28T12:27:02;97465.31;;;9.37;38.68
78210;BME280;67485;48.816;9.930;2023-02-28T12:29:48;97465.91;;;8.78;37.55
78210;BME280;67485;48.816;9.930;2023-02-28T12:32:36;97463.09;;;8.98;39.37
78210;BME280;67485;48.816;9.930;2023-02-28T12:35:11;97470.94;;;7.72;41.14
78210;BME280;67485;48.816;9.930;2023-02-28T12:37:50;97467.34;;;7.97;40.65
78210;BME280;67485;48.816;9.930;2023-02-28T12:40:23;97472.47;;;8.12;41.47
78210;BME280;67485;48.816;9.930;2023-02-28T12:42:59;97461.91;;;8.31;40.47
78210;BME280;67485;48.816;9.930;2023-02-28T12:45:40;97466.03;;;6.18;43.48
78210;BME280;67485;48.816;9.930;2023-02-28T12:48:12;97465.16;;;6.29;44.83
78210;BME280;67485;48.816;9.930;2023-02-28T12:50:40;97458.22;;;6.47;44.59
78210;BME280;67485;48.816;9.930;2023-02-28T12:53:10;97456.44;;;6.06;44.75
78210;BME280;67485;48.816;9.930;2023-02-28T12:58:14;97456.06;;;5.00;46.40
78210;BME280;67485;48.816;9.930;2023-02-28T13:03:40;97457.28;;;5.97;47.19
78210;BME280;67485;48.816;9.930;2023-02-28T13:06:45;97456.25;;;5.41;47.24
78210;BME280;67485;48.816;9.930;2023-02-28T13:09:20;97448.53;;;5.67;47.35
78210;BME280;67485;48.816;9.930;2023-02-28T13:11:48;97457.91;;;5.29;47.29
78210;BME280;67485;48.816;9.930;2023-02-28T13:14:24;97453.91;;;4.37;47.52
78210;BME280;67485;48.816;9.930;2023-02-28T13:16:57;97446.75;;;4.10;48.93
78210;BME280;67485;48.816;9.930;2023-02-28T13:19:27;97450.41;;;4.35;49.21
78210;BME280;67485;48.816;9.930;2023-02-28T13:21:54;97452.19;;;4.40;50.16
78210;BME280;67485;48.816;9.930;2023-02-28T13:27:21;97450.97;;;3.97;51.07
78210;BME280;67485;48.816;9.930;2023-02-28T13:29:51;97446.44;;;3.78;51.34
78210;BME280;67485;48.816;9.930;2023-02-28T13:32:32;97449.88;;;3.77;50.71
78210;BME280;67485;48.816;9.930;2023-02-28T13:39:59;97451.94;;;4.12;51.57
78210;BME280;67485;48.816;9.930;2023-02-28T13:56:03;97450.84;;;3.85;52.47
78210;BME280;67485;48.816;9.930;2023-02-28T13:59:13;97446.47;;;3.81;52.31
78210;BME280;67485;48.816;9.930;2023-02-28T14:01:53;97440.47;;;3.85;52.76
78210;BME280;67485;48.816;9.930;2023-02-28T14:07:45;97438.44;;;3.57;53.09
78210;BME280;67485;48.816;9.930;2023-02-28T14:10:26;97439.81;;;3.28;53.69
78210;BME280;67485;48.816;9.930;2023-02-28T14:12:54;97437.25;;;3.29;54.07
78210;BME280;67485;48.816;9.930;2023-02-28T14:18:00;97456.50;;;3.50;54.07
78210;BME280;67485;48.816;9.930;2023-02-28T14:20:29;97451.31;;;3.50;53.91
78210;BME280;67485;48.816;9.930;2023-02-28T14:28:46;97454.75;;;3.49;52.93
78210;BME280;67485;48.816;9.930;2023-02-28T14:31:34;97448.34;;;3.19;53.03
78210;BME280;67485;48.816;9.930;2023-02-28T14:36:52;97450.78;;;3.06;54.21
78210;BME280;67485;48.816;9.930;2023-02-28T14:39:25;97457.69;;;3.04;54.12
78210;BME280;67485;48.816;9.930;2023-02-28T14:41:53;97461.28;;;3.16;53.80
78210;BME280;67485;48.816;9.930;2023-02-28T14:44:26;97464.13;;;3.39;54.25
78210;BME280;67485;48.816;9.930;2023-02-28T14:46:57;97466.75;;;3.40;53.76
78210;BME280;67485;48.816;9.930;2023-02-28T14:49:28;97461.53;;;3.37;53.31
78210;BME280;67485;48.816;9.930;2023-02-28T14:52:09;97461.19;;;3.10;53.33
78210;BME280;67485;48.816;9.930;2023-02-28T14:54:39;97469.06;;;3.19;54.23
78210;BME280;67485;48.816;9.930;2023-02-28T14:57:05;97469.06;;;3.17;53.91
78210;BME280;67485;48.816;9.930;2023-02-28T14:59:33;97466.53;;;3.22;53.96
78210;BME280;67485;48.816;9.930;2023-02-28T15:02:22;97475.16;;;3.21;53.80
78210;BME280;67485;48.816;9.930;2023-02-28T15:07:35;97466.56;;;3.25;53.95
78210;BME280;67485;48.816;9.930;2023-02-28T15:12:52;97469.16;;;3.27;54.21
78210;BME280;67485;48.816;9.930;2023-02-28T15:15:20;97471.81;;;3.28;54.20
78210;BME280;67485;48.816;9.930;2023-02-28T15:17:52;97472.75;;;3.38;53.99
78210;BME280;67485;48.816;9.930;2023-02-28T15:20:20;97479.66;;;3.36;54.39
78210;BME280;67485;48.816;9.930;2023-02-28T15:22:47;97479.31;;;3.10;54.36
78210;BME280;67485;48.816;9.930;2023-02-28T15:25:18;97481.84;;;3.03;54.96
78210;BME280;67485;48.816;9.930;2023-02-28T15:27:51;97478.25;;;2.95;54.74
78210;BME280;67485;48.816;9.930;2023-02-28T15:30:21;97482.47;;;2.87;54.99
78210;BME280;67485;48.816;9.930;2023-02-28T15:35:41;97484.97;;;2.81;55.01
78210;BME280;67485;48.816;9.930;2023-02-28T15:40:52;97491.00;;;2.83;55.51
78210;BME280;67485;48.816;9.930;2023-02-28T15:43:31;97486.72;;;2.82;55.77